Terminal Aerodrome Forecast
Issued by NWS Des Moines, IA

Home | Current Version | Previous Version | Text Only | Print | Product List | Glossary On
Versions: 1 2 3 4 5 6 7 8 9 10 11 12 13 14 15 16 17 18 19 20 21 22 23 24 25 26 27 28 29 30
382
FTUS43 KDMX 100541
TAFDSM
TAF
KDSM 100541Z 1006/1106 25004KT P6SM OVC060
     FM101500 12006KT P6SM OVC040
     FM101800 13009KT 2SM -SN OVC030
     FM110000 13009KT 6SM -SN OVC045=

USA.gov is the U.S. government's official web portal to all federal, state and local government web resources and services.